首页
METAR-TAF:

METAR-TAF

机场 :

瓦加杜古國際機場

瓦加杜古, 布吉納法索

纬度: 12-21N, 经度: 001-31W, 海拔: 316米

当前天气观测

该预报发布于20分钟前的02:00 UTC
风速6节,风向西转西南
温度 29°C
湿度 58%
气压 1014 hPa
能见度10公里或以上
1500米以下无云,无积雨云

METAR: DFFD 230200Z 24006KT CAVOK 29/20 Q1014 NOSIG

时间: 02:20 (02:20 UTC)

预报

该预报发布于3小时和20分钟前的23:00 UTC
预报有效从23日的 00点(UTC)到 24日的 06点(UTC)
风速10节,风向南转西南
能见度10公里或以上
少量云层高于2600英尺
短暂存在
从 23日的 01点(UTC)到 23日的 06点(UTC)
风速25节,风向多变
能見度: 2500
散云层高于2600英尺
散云层高于3300英尺, 积雨云.
飑, 高吹沙, 雷暴, 雨
短暂存在
从 23日的 16点(UTC)到 23日的 24点(UTC)
能見度: 4000
散云层高于2600英尺
散云层高于3300英尺, 积雨云.
雷暴, 雨

TAF: DFFD 222300Z 2300/2406 20010KT 9999 FEW026 TEMPO 2301/2306 VRB25KT 2500 SQ BLSA TSRA SCT026 SCT033CB TEMPO 2316/2324 4000 TSRA SCT026 SCT033CB

超过4000个机场的气象观测和天气预报(METAR&TAF报告)。

可查询的气象台以黄色和红色小点在地图上表示。

将鼠标移到小点上方,可查看气象台名称。

然后点击查看天气观测和预报。

如需切换地图:点击带黑十字的绿色按钮放大地图;点击带横线的绿色按钮缩小地图;或者点击绿色箭头查看邻近地区的地图。


METAR-TAF: